Cleveland, Mississippi
Current Conditions -  °F | °C
As of 5:55 AM on Friday 19 Dec 2014 (Local Time) from KRNV Reporting Station
Clear Clear  
Wind Chill: 39°   Ceiling: Unl
Heat Index: 44°   Visibility: 10mi
Dew Point: 41°   Wind: 8mph
Humidity: 91%   Direction: 20°NNE
Pressure: 30.19"   Gusts: NA
Location:  33.75°N, 90.72°W
Report Text: KRNV 191155Z AUTO 02007KT 10SM CLR 06/05 A3019 RMK AO2 70002 T00640051 10072 20063
Loading
Personal Weather Stations






























Interactive Weather Map New forecast layout! Learn more

10-Day Weather Forecast

Advertisements
Track Severe Weather on mobile